sensor_id;sensor_type;location;lat;lon;timestamp;pressure;altitude;pressure_sealevel;temperature;humidity
60852;BME280;48553;50.766;2.900;2023-03-16T00:01:36;100880.31;;;8.20;77.92
60852;BME280;48553;50.766;2.900;2023-03-16T00:04:37;100879.47;;;8.20;77.77
60852;BME280;48553;50.766;2.900;2023-03-16T00:07:38;100875.00;;;8.24;78.05
60852;BME280;48553;50.766;2.900;2023-03-16T00:10:38;100872.41;;;8.19;77.96
60852;BME280;48553;50.766;2.900;2023-03-16T00:13:38;100867.59;;;8.15;78.14
60852;BME280;48553;50.766;2.900;2023-03-16T00:16:39;100871.28;;;8.20;78.27
60852;BME280;48553;50.766;2.900;2023-03-16T00:19:39;100870.00;;;8.17;78.40
60852;BME280;48553;50.766;2.900;2023-03-16T00:22:45;100862.63;;;8.18;78.70
60852;BME280;48553;50.766;2.900;2023-03-16T00:25:46;100861.16;;;8.11;78.98
60852;BME280;48553;50.766;2.900;2023-03-16T00:28:46;100863.09;;;8.11;79.16
60852;BME280;48553;50.766;2.900;2023-03-16T00:31:47;100868.06;;;8.09;79.36
60852;BME280;48553;50.766;2.900;2023-03-16T00:34:47;100860.38;;;8.11;79.46
60852;BME280;48553;50.766;2.900;2023-03-16T00:37:48;100860.66;;;8.09;79.49
60852;BME280;48553;50.766;2.900;2023-03-16T00:40:48;100855.22;;;8.09;79.29
60852;BME280;48553;50.766;2.900;2023-03-16T00:43:50;100847.31;;;8.08;79.43
60852;BME280;48553;50.766;2.900;2023-03-16T00:46:52;100838.66;;;8.06;79.76
60852;BME280;48553;50.766;2.900;2023-03-16T00:49:54;100829.66;;;8.05;79.44
60852;BME280;48553;50.766;2.900;2023-03-16T00:52:55;100830.81;;;8.04;79.63
60852;BME280;48553;50.766;2.900;2023-03-16T00:55:55;100831.09;;;8.03;79.43
60852;BME280;48553;50.766;2.900;2023-03-16T00:58:56;100819.69;;;8.01;79.61
60852;BME280;48553;50.766;2.900;2023-03-16T01:01:56;100812.78;;;8.03;79.72
60852;BME280;48553;50.766;2.900;2023-03-16T01:04:57;100811.00;;;7.99;79.78
60852;BME280;48553;50.766;2.900;2023-03-16T01:07:57;100804.75;;;7.98;79.96
60852;BME280;48553;50.766;2.900;2023-03-16T01:11:09;100807.81;;;7.97;79.82
60852;BME280;48553;50.766;2.900;2023-03-16T01:14:10;100798.50;;;7.98;80.00
60852;BME280;48553;50.766;2.900;2023-03-16T01:17:11;100808.94;;;7.95;79.95
60852;BME280;48553;50.766;2.900;2023-03-16T01:20:13;100790.13;;;7.94;80.19
60852;BME280;48553;50.766;2.900;2023-03-16T01:23:16;100793.16;;;7.92;79.83
60852;BME280;48553;50.766;2.900;2023-03-16T01:26:17;100789.16;;;7.90;80.27
60852;BME280;48553;50.766;2.900;2023-03-16T01:29:17;100780.66;;;7.91;79.89
60852;BME280;48553;50.766;2.900;2023-03-16T01:32:18;100776.66;;;7.89;80.16
60852;BME280;48553;50.766;2.900;2023-03-16T01:35:18;100781.63;;;7.87;80.37
60852;BME280;48553;50.766;2.900;2023-03-16T01:38:21;100769.41;;;7.84;80.19
60852;BME280;48553;50.766;2.900;2023-03-16T01:41:21;100772.13;;;7.84;80.33
60852;BME280;48553;50.766;2.900;2023-03-16T01:44:24;100763.97;;;7.84;80.27
60852;BME280;48553;50.766;2.900;2023-03-16T01:47:30;100763.97;;;7.84;80.41
60852;BME280;48553;50.766;2.900;2023-03-16T01:50:37;100751.75;;;7.82;80.54
60852;BME280;48553;50.766;2.900;2023-03-16T01:53:40;100754.16;;;7.83;80.73
60852;BME280;48553;50.766;2.900;2023-03-16T02:00:11;100744.53;;;7.77;80.80
60852;BME280;48553;50.766;2.900;2023-03-16T02:03:21;100730.88;;;7.77;80.55
60852;BME280;48553;50.766;2.900;2023-03-16T02:06:21;100725.41;;;7.77;80.62
60852;BME280;48553;50.766;2.900;2023-03-16T02:09:23;100723.78;;;7.76;80.49
60852;BME280;48553;50.766;2.900;2023-03-16T02:12:24;100727.97;;;7.73;80.72
60852;BME280;48553;50.766;2.900;2023-03-16T02:15:25;100726.03;;;7.74;80.81
60852;BME280;48553;50.766;2.900;2023-03-16T02:18:26;100711.44;;;7.70;80.71
60852;BME280;48553;50.766;2.900;2023-03-16T02:24:50;100712.06;;;7.67;80.67
60852;BME280;48553;50.766;2.900;2023-03-16T02:28:27;100701.34;;;7.70;80.60
60852;BME280;48553;50.766;2.900;2023-03-16T02:31:30;100684.97;;;7.70;80.29
60852;BME280;48553;50.766;2.900;2023-03-16T02:34:31;100683.34;;;7.69;80.67
60852;BME280;48553;50.766;2.900;2023-03-16T02:37:32;100685.44;;;7.64;80.57
60852;BME280;48553;50.766;2.900;2023-03-16T02:40:34;100674.53;;;7.64;80.88
60852;BME280;48553;50.766;2.900;2023-03-16T02:43:37;100668.28;;;7.63;80.71
60852;BME280;48553;50.766;2.900;2023-03-16T02:46:39;100668.56;;;7.62;80.97
60852;BME280;48553;50.766;2.900;2023-03-16T02:49:43;100659.59;;;7.61;80.91
60852;BME280;48553;50.766;2.900;2023-03-16T02:52:44;100654.47;;;7.60;80.89
60852;BME280;48553;50.766;2.900;2023-03-16T02:55:47;100667.78;;;7.61;80.86
60852;BME280;48553;50.766;2.900;2023-03-16T02:58:47;100659.91;;;7.60;80.24
60852;BME280;48553;50.766;2.900;2023-03-16T03:01:48;100658.31;;;7.59;80.57
60852;BME280;48553;50.766;2.900;2023-03-16T03:04:48;100658.13;;;7.55;80.43
60852;BME280;48553;50.766;2.900;2023-03-16T03:07:49;100660.56;;;7.57;80.12
60852;BME280;48553;50.766;2.900;2023-03-16T03:10:50;100639.03;;;7.55;80.61
60852;BME280;48553;50.766;2.900;2023-03-16T03:13:50;100638.25;;;7.55;80.12
60852;BME280;48553;50.766;2.900;2023-03-16T03:16:51;100637.44;;;7.54;79.99
60852;BME280;48553;50.766;2.900;2023-03-16T03:19:52;100635.84;;;7.53;80.46
60852;BME280;48553;50.766;2.900;2023-03-16T03:22:52;100633.41;;;7.51;80.48
60852;BME280;48553;50.766;2.900;2023-03-16T03:25:56;100613.88;;;7.49;80.33
60852;BME280;48553;50.766;2.900;2023-03-16T03:28:57;100621.56;;;7.47;80.15
60852;BME280;48553;50.766;2.900;2023-03-16T03:31:57;100609.50;;;7.48;80.10
60852;BME280;48553;50.766;2.900;2023-03-16T03:34:58;100615.28;;;7.47;80.46
60852;BME280;48553;50.766;2.900;2023-03-16T03:37:58;100603.25;;;7.48;80.40
60852;BME280;48553;50.766;2.900;2023-03-16T03:40:59;100595.09;;;7.48;80.01
60852;BME280;48553;50.766;2.900;2023-03-16T03:43:59;100591.88;;;7.46;79.78
60852;BME280;48553;50.766;2.900;2023-03-16T03:47:00;100588.97;;;7.42;79.89
60852;BME280;48553;50.766;2.900;2023-03-16T03:50:00;100594.28;;;7.39;79.90
60852;BME280;48553;50.766;2.900;2023-03-16T03:53:01;100601.00;;;7.41;79.73
60852;BME280;48553;50.766;2.900;2023-03-16T03:56:01;100598.94;;;7.38;79.73
60852;BME280;48553;50.766;2.900;2023-03-16T03:59:02;100589.91;;;7.38;79.63
60852;BME280;48553;50.766;2.900;2023-03-16T04:02:02;100592.81;;;7.32;79.71
60852;BME280;48553;50.766;2.900;2023-03-16T04:05:04;100580.94;;;7.37;79.66
60852;BME280;48553;50.766;2.900;2023-03-16T04:08:04;100573.41;;;7.34;79.50
60852;BME280;48553;50.766;2.900;2023-03-16T04:11:05;100574.53;;;7.33;79.25
60852;BME280;48553;50.766;2.900;2023-03-16T04:14:06;100562.34;;;7.30;79.69
60852;BME280;48553;50.766;2.900;2023-03-16T04:17:06;100572.63;;;7.34;79.32
60852;BME280;48553;50.766;2.900;2023-03-16T04:20:08;100561.53;;;7.30;79.48
60852;BME280;48553;50.766;2.900;2023-03-16T04:23:13;100566.00;;;7.26;79.57
60852;BME280;48553;50.766;2.900;2023-03-16T04:26:15;100576.75;;;7.22;79.52
60852;BME280;48553;50.766;2.900;2023-03-16T04:29:18;100573.88;;;7.27;79.64
60852;BME280;48553;50.766;2.900;2023-03-16T04:32:18;100551.91;;;7.24;79.40
60852;BME280;48553;50.766;2.900;2023-03-16T04:35:19;100550.31;;;7.23;79.54
60852;BME280;48553;50.766;2.900;2023-03-16T04:38:19;100559.75;;;7.25;79.25
60852;BME280;48553;50.766;2.900;2023-03-16T04:41:20;100553.34;;;7.21;79.10
60852;BME280;48553;50.766;2.900;2023-03-16T04:44:20;100551.25;;;7.18;78.94
60852;BME280;48553;50.766;2.900;2023-03-16T04:47:20;100547.41;;;7.19;78.79
60852;BME280;48553;50.766;2.900;2023-03-16T04:50:22;100549.50;;;7.14;79.02
60852;BME280;48553;50.766;2.900;2023-03-16T04:53:22;100552.38;;;7.17;78.63
60852;BME280;48553;50.766;2.900;2023-03-16T04:56:23;100556.22;;;7.16;78.62
60852;BME280;48553;50.766;2.900;2023-03-16T04:59:23;100562.47;;;7.17;78.60
60852;BME280;48553;50.766;2.900;2023-03-16T05:02:24;100570.94;;;7.15;78.33
60852;BME280;48553;50.766;2.900;2023-03-16T05:05:24;100555.88;;;7.09;78.55
60852;BME280;48553;50.766;2.900;2023-03-16T05:08:24;100562.31;;;7.13;78.87
60852;BME280;48553;50.766;2.900;2023-03-16T05:11:25;100570.31;;;7.09;78.72
60852;BME280;48553;50.766;2.900;2023-03-16T05:14:25;100555.88;;;7.09;78.62
60852;BME280;48553;50.766;2.900;2023-03-16T05:17:26;100548.69;;;7.13;78.30
60852;BME280;48553;50.766;2.900;2023-03-16T05:20:27;100544.66;;;7.10;78.15
60852;BME280;48553;50.766;2.900;2023-03-16T05:23:27;100552.34;;;7.08;78.51
60852;BME280;48553;50.766;2.900;2023-03-16T05:26:28;100538.72;;;7.08;78.33
60852;BME280;48553;50.766;2.900;2023-03-16T05:29:28;100544.66;;;7.10;77.96
60852;BME280;48553;50.766;2.900;2023-03-16T05:32:30;100538.06;;;7.03;77.99
60852;BME280;48553;50.766;2.900;2023-03-16T05:35:30;100529.91;;;7.03;78.36
60852;BME280;48553;50.766;2.900;2023-03-16T05:38:31;100526.69;;;7.01;78.18
60852;BME280;48553;50.766;2.900;2023-03-16T05:41:31;100525.25;;;7.03;78.07
60852;BME280;48553;50.766;2.900;2023-03-16T05:44:32;100522.69;;;6.98;78.20
60852;BME280;48553;50.766;2.900;2023-03-16T05:47:33;100533.56;;;6.98;78.39
60852;BME280;48553;50.766;2.900;2023-03-16T05:50:35;100534.56;;;7.02;78.07
60852;BME280;48553;50.766;2.900;2023-03-16T05:53:36;100537.88;;;6.99;78.01
60852;BME280;48553;50.766;2.900;2023-03-16T05:56:36;100551.06;;;6.97;78.55
60852;BME280;48553;50.766;2.900;2023-03-16T05:59:37;100547.69;;;7.00;78.24
60852;BME280;48553;50.766;2.900;2023-03-16T06:02:37;100539.34;;;6.97;78.10
60852;BME280;48553;50.766;2.900;2023-03-16T06:05:38;100549.75;;;6.95;78.30
60852;BME280;48553;50.766;2.900;2023-03-16T06:08:38;100545.41;;;6.94;78.55
60852;BME280;48553;50.766;2.900;2023-03-16T06:11:38;100543.97;;;6.96;78.20
60852;BME280;48553;50.766;2.900;2023-03-16T06:14:39;100550.56;;;6.95;77.82
60852;BME280;48553;50.766;2.900;2023-03-16T06:17:40;100553.91;;;6.92;78.11
60852;BME280;48553;50.766;2.900;2023-03-16T06:20:41;100545.59;;;6.97;78.11
60852;BME280;48553;50.766;2.900;2023-03-16T06:23:41;100547.84;;;6.95;78.08
60852;BME280;48553;50.766;2.900;2023-03-16T06:26:42;100551.38;;;6.96;78.00
60852;BME280;48553;50.766;2.900;2023-03-16T06:29:42;100543.50;;;6.94;77.85
60852;BME280;48553;50.766;2.900;2023-03-16T06:32:43;100544.28;;;6.95;77.85
60852;BME280;48553;50.766;2.900;2023-03-16T06:35:44;100530.34;;;6.96;77.36
60852;BME280;48553;50.766;2.900;2023-03-16T06:38:47;100539.66;;;6.95;77.32
60852;BME280;48553;50.766;2.900;2023-03-16T06:41:47;100541.25;;;6.96;77.28
60852;BME280;48553;50.766;2.900;2023-03-16T06:44:48;100542.38;;;6.95;77.59
60852;BME280;48553;50.766;2.900;2023-03-16T06:47:48;100542.06;;;6.97;76.98
60852;BME280;48553;50.766;2.900;2023-03-16T06:50:49;100539.81;;;6.99;76.87
60852;BME280;48553;50.766;2.900;2023-03-16T06:53:49;100534.84;;;7.01;77.21
60852;BME280;48553;50.766;2.900;2023-03-16T06:56:50;100536.78;;;7.00;77.19
60852;BME280;48553;50.766;2.900;2023-03-16T06:59:51;100531.34;;;7.00;76.74
60852;BME280;48553;50.766;2.900;2023-03-16T07:02:51;100537.59;;;7.01;77.34
60852;BME280;48553;50.766;2.900;2023-03-16T07:05:52;100531.81;;;7.02;76.65
60852;BME280;48553;50.766;2.900;2023-03-16T07:08:53;100540.31;;;7.01;76.73
60852;BME280;48553;50.766;2.900;2023-03-16T07:11:53;100548.47;;;7.01;76.78
60852;BME280;48553;50.766;2.900;2023-03-16T07:14:54;100541.94;;;7.02;76.87
60852;BME280;48553;50.766;2.900;2023-03-16T07:17:54;100545.13;;;7.04;76.95
60852;BME280;48553;50.766;2.900;2023-03-16T07:20:55;100547.38;;;7.02;76.96
60852;BME280;48553;50.766;2.900;2023-03-16T07:23:55;100554.59;;;7.06;77.15
60852;BME280;48553;50.766;2.900;2023-03-16T07:26:56;100542.56;;;7.07;77.11
60852;BME280;48553;50.766;2.900;2023-03-16T07:29:56;100545.13;;;7.04;77.29
60852;BME280;48553;50.766;2.900;2023-03-16T07:32:56;100546.09;;;7.08;76.98
60852;BME280;48553;50.766;2.900;2023-03-16T07:35:57;100543.25;;;7.13;76.84
60852;BME280;48553;50.766;2.900;2023-03-16T07:38:57;100544.03;;;7.14;77.00
60852;BME280;48553;50.766;2.900;2023-03-16T07:41:58;100545.78;;;7.09;77.20
60852;BME280;48553;50.766;2.900;2023-03-16T07:44:58;100549.00;;;7.11;77.41
60852;BME280;48553;50.766;2.900;2023-03-16T07:47:59;100545.97;;;7.13;77.24
60852;BME280;48553;50.766;2.900;2023-03-16T07:50:59;100545.13;;;7.13;77.24
60852;BME280;48553;50.766;2.900;2023-03-16T07:54:00;100542.91;;;7.15;77.22
60852;BME280;48553;50.766;2.900;2023-03-16T07:57:00;100552.22;;;7.14;77.27
60852;BME280;48553;50.766;2.900;2023-03-16T08:00:01;100553.81;;;7.15;77.04
60852;BME280;48553;50.766;2.900;2023-03-16T08:03:05;100549.63;;;7.17;77.14
60852;BME280;48553;50.766;2.900;2023-03-16T08:06:05;100553.81;;;7.15;76.80
60852;BME280;48553;50.766;2.900;2023-03-16T08:09:06;100538.72;;;7.17;76.78
60852;BME280;48553;50.766;2.900;2023-03-16T08:12:07;100538.44;;;7.19;76.96
60852;BME280;48553;50.766;2.900;2023-03-16T08:15:09;100546.13;;;7.17;76.99
60852;BME280;48553;50.766;2.900;2023-03-16T08:18:09;100543.38;;;7.17;77.09
60852;BME280;48553;50.766;2.900;2023-03-16T08:21:10;100537.28;;;7.20;77.02
60852;BME280;48553;50.766;2.900;2023-03-16T08:24:10;100534.25;;;7.21;76.73
60852;BME280;48553;50.766;2.900;2023-03-16T08:27:11;100543.59;;;7.29;76.88
60852;BME280;48553;50.766;2.900;2023-03-16T08:30:13;100540.88;;;7.29;77.06
60852;BME280;48553;50.766;2.900;2023-03-16T08:33:14;100547.75;;;7.35;76.71
60852;BME280;48553;50.766;2.900;2023-03-16T08:36:17;100540.06;;;7.37;77.08
60852;BME280;48553;50.766;2.900;2023-03-16T08:39:18;100539.28;;;7.45;77.02
60852;BME280;48553;50.766;2.900;2023-03-16T08:42:19;100551.47;;;7.57;76.66
60852;BME280;48553;50.766;2.900;2023-03-16T08:45:20;100537.66;;;7.62;76.66
60852;BME280;48553;50.766;2.900;2023-03-16T08:48:20;100551.94;;;7.67;76.33
60852;BME280;48553;50.766;2.900;2023-03-16T08:51:22;100548.72;;;7.74;76.36
60852;BME280;48553;50.766;2.900;2023-03-16T08:54:22;100566.84;;;7.79;76.31
60852;BME280;48553;50.766;2.900;2023-03-16T08:57:23;100561.41;;;7.79;76.14
60852;BME280;48553;50.766;2.900;2023-03-16T09:00:23;100571.81;;;7.77;76.20
60852;BME280;48553;50.766;2.900;2023-03-16T09:03:24;100559.16;;;7.81;76.24
60852;BME280;48553;50.766;2.900;2023-03-16T09:06:25;100565.56;;;7.85;76.12
60852;BME280;48553;50.766;2.900;2023-03-16T09:09:27;100555.31;;;7.90;75.67
60852;BME280;48553;50.766;2.900;2023-03-16T09:12:30;100553.53;;;7.94;75.86
60852;BME280;48553;50.766;2.900;2023-03-16T09:15:31;100550.47;;;8.05;76.02
60852;BME280;48553;50.766;2.900;2023-03-16T09:18:32;100540.97;;;8.20;75.58
60852;BME280;48553;50.766;2.900;2023-03-16T09:21:34;100548.97;;;8.33;75.38
60852;BME280;48553;50.766;2.900;2023-03-16T09:24:35;100537.72;;;8.44;75.49
60852;BME280;48553;50.766;2.900;2023-03-16T09:27:36;100538.19;;;8.54;74.97
60852;BME280;48553;50.766;2.900;2023-03-16T09:30:36;100529.94;;;8.63;75.23
60852;BME280;48553;50.766;2.900;2023-03-16T09:33:37;100536.78;;;8.78;75.01
60852;BME280;48553;50.766;2.900;2023-03-16T09:36:37;100537.22;;;8.89;74.41
60852;BME280;48553;50.766;2.900;2023-03-16T09:39:38;100535.31;;;9.10;75.44
60852;BME280;48553;50.766;2.900;2023-03-16T09:42:47;100536.34;;;9.27;74.77
60852;BME280;48553;50.766;2.900;2023-03-16T09:46:17;100529.22;;;9.34;74.85
60852;BME280;48553;50.766;2.900;2023-03-16T09:49:20;100517.06;;;9.44;74.72
60852;BME280;48553;50.766;2.900;2023-03-16T09:52:39;100517.25;;;9.60;74.58
60852;BME280;48553;50.766;2.900;2023-03-16T09:55:45;100504.78;;;9.71;73.86
60852;BME280;48553;50.766;2.900;2023-03-16T09:58:47;100493.06;;;9.83;73.44
60852;BME280;48553;50.766;2.900;2023-03-16T10:05:08;100507.69;;;9.87;72.99
60852;BME280;48553;50.766;2.900;2023-03-16T10:08:17;100502.00;;;9.92;72.90
60852;BME280;48553;50.766;2.900;2023-03-16T10:20:52;100493.59;;;10.10;71.79
60852;BME280;48553;50.766;2.900;2023-03-16T10:23:56;100482.66;;;10.10;72.80
60852;BME280;48553;50.766;2.900;2023-03-16T10:27:02;100490.66;;;10.15;73.29
60852;BME280;48553;50.766;2.900;2023-03-16T10:33:18;100471.50;;;10.27;72.64
60852;BME280;48553;50.766;2.900;2023-03-16T10:36:32;100472.81;;;10.30;72.83
60852;BME280;48553;50.766;2.900;2023-03-16T10:39:37;100486.50;;;10.42;72.94
60852;BME280;48553;50.766;2.900;2023-03-16T10:42:42;100484.56;;;10.55;73.00
60852;BME280;48553;50.766;2.900;2023-03-16T10:45:43;100480.13;;;10.62;72.04
60852;BME280;48553;50.766;2.900;2023-03-16T10:48:56;100468.81;;;10.89;70.38
60852;BME280;48553;50.766;2.900;2023-03-16T10:52:05;100466.25;;;11.08;70.62
60852;BME280;48553;50.766;2.900;2023-03-16T10:55:16;100458.91;;;11.24;71.35
60852;BME280;48553;50.766;2.900;2023-03-16T10:58:28;100461.22;;;11.50;70.14
60852;BME280;48553;50.766;2.900;2023-03-16T11:01:30;100459.88;;;11.73;69.91
60852;BME280;48553;50.766;2.900;2023-03-16T11:04:31;100453.41;;;11.81;70.00
60852;BME280;48553;50.766;2.900;2023-03-16T11:07:34;100465.09;;;12.06;70.02
60852;BME280;48553;50.766;2.900;2023-03-16T11:10:41;100447.63;;;12.30;69.39
60852;BME280;48553;50.766;2.900;2023-03-16T11:13:46;100442.06;;;12.42;68.82
60852;BME280;48553;50.766;2.900;2023-03-16T11:16:56;100444.34;;;12.56;68.67
60852;BME280;48553;50.766;2.900;2023-03-16T11:20:03;100430.13;;;12.70;67.88
60852;BME280;48553;50.766;2.900;2023-03-16T11:23:17;100434.16;;;12.92;68.05
60852;BME280;48553;50.766;2.900;2023-03-16T11:26:28;100419.94;;;13.06;67.78
60852;BME280;48553;50.766;2.900;2023-03-16T11:29:39;100425.72;;;13.20;68.09
60852;BME280;48553;50.766;2.900;2023-03-16T11:32:46;100416.03;;;13.26;67.20
60852;BME280;48553;50.766;2.900;2023-03-16T11:42:38;100406.81;;;13.57;66.99
60852;BME280;48553;50.766;2.900;2023-03-16T11:52:57;100375.50;;;13.89;65.89
60852;BME280;48553;50.766;2.900;2023-03-16T12:00:19;100358.34;;;14.22;64.27
60852;BME280;48553;50.766;2.900;2023-03-16T12:13:09;100375.00;;;14.29;64.89
60852;BME280;48553;50.766;2.900;2023-03-16T12:16:28;100371.66;;;14.43;64.07
60852;BME280;48553;50.766;2.900;2023-03-16T12:22:44;100351.19;;;14.44;63.11
60852;BME280;48553;50.766;2.900;2023-03-16T12:25:46;100346.94;;;14.50;63.34
60852;BME280;48553;50.766;2.900;2023-03-16T12:28:49;100351.38;;;14.55;63.13
60852;BME280;48553;50.766;2.900;2023-03-16T12:54:33;100290.34;;;15.24;61.44
60852;BME280;48553;50.766;2.900;2023-03-16T12:57:34;100304.22;;;15.35;61.91
60852;BME280;48553;50.766;2.900;2023-03-16T13:00:38;100296.03;;;15.42;62.58
60852;BME280;48553;50.766;2.900;2023-03-16T13:03:41;100292.97;;;15.54;62.22
60852;BME280;48553;50.766;2.900;2023-03-16T13:06:44;100279.59;;;15.56;62.29
60852;BME280;48553;50.766;2.900;2023-03-16T13:09:51;100277.72;;;15.68;61.73
60852;BME280;48553;50.766;2.900;2023-03-16T13:12:54;100267.94;;;15.74;61.79
60852;BME280;48553;50.766;2.900;2023-03-16T13:16:07;100256.47;;;15.72;61.96
60852;BME280;48553;50.766;2.900;2023-03-16T13:19:27;100262.00;;;15.72;61.09
60852;BME280;48553;50.766;2.900;2023-03-16T13:22:30;100250.59;;;15.80;60.80
60852;BME280;48553;50.766;2.900;2023-03-16T13:25:41;100254.16;;;15.81;60.24
60852;BME280;48553;50.766;2.900;2023-03-16T13:28:48;100253.81;;;15.86;59.77
60852;BME280;48553;50.766;2.900;2023-03-16T13:31:49;100256.88;;;15.77;59.77
60852;BME280;48553;50.766;2.900;2023-03-16T13:34:52;100255.56;;;15.64;59.23
60852;BME280;48553;50.766;2.900;2023-03-16T13:38:04;100238.53;;;15.55;59.18
60852;BME280;48553;50.766;2.900;2023-03-16T13:41:13;100240.59;;;15.65;59.74
60852;BME280;48553;50.766;2.900;2023-03-16T13:44:14;100250.03;;;15.60;59.53
60852;BME280;48553;50.766;2.900;2023-03-16T13:47:16;100256.75;;;15.63;59.79
60852;BME280;48553;50.766;2.900;2023-03-16T13:50:18;100246.41;;;15.53;60.02
60852;BME280;48553;50.766;2.900;2023-03-16T13:53:24;100241.75;;;15.60;59.69
60852;BME280;48553;50.766;2.900;2023-03-16T13:56:27;100232.25;;;15.58;60.14
60852;BME280;48553;50.766;2.900;2023-03-16T13:59:30;100229.91;;;15.63;59.88
60852;BME280;48553;50.766;2.900;2023-03-16T14:02:39;100222.75;;;15.55;59.81
60852;BME280;48553;50.766;2.900;2023-03-16T14:05:41;100222.38;;;15.57;59.61
60852;BME280;48553;50.766;2.900;2023-03-16T14:08:45;100220.00;;;15.59;59.30
60852;BME280;48553;50.766;2.900;2023-03-16T14:11:48;100219.56;;;15.50;58.87
60852;BME280;48553;50.766;2.900;2023-03-16T14:14:53;100208.13;;;15.51;58.97
60852;BME280;48553;50.766;2.900;2023-03-16T14:17:54;100200.31;;;15.60;58.59
60852;BME280;48553;50.766;2.900;2023-03-16T14:21:08;100199.16;;;15.65;58.79
60852;BME280;48553;50.766;2.900;2023-03-16T14:24:38;100199.16;;;15.69;58.48
60852;BME280;48553;50.766;2.900;2023-03-16T14:30:52;100188.25;;;15.83;58.96
60852;BME280;48553;50.766;2.900;2023-03-16T14:33:59;100189.00;;;15.80;58.92
60852;BME280;48553;50.766;2.900;2023-03-16T14:37:11;100183.09;;;15.81;59.04
60852;BME280;48553;50.766;2.900;2023-03-16T14:43:30;100196.88;;;15.78;58.95
60852;BME280;48553;50.766;2.900;2023-03-16T14:46:37;100189.75;;;15.73;59.32
60852;BME280;48553;50.766;2.900;2023-03-16T14:49:39;100181.34;;;15.59;59.86
60852;BME280;48553;50.766;2.900;2023-03-16T14:52:40;100173.72;;;15.41;60.39
60852;BME280;48553;50.766;2.900;2023-03-16T14:55:40;100184.28;;;15.29;60.80
60852;BME280;48553;50.766;2.900;2023-03-16T14:58:41;100169.59;;;15.17;61.19
60852;BME280;48553;50.766;2.900;2023-03-16T15:01:41;100166.72;;;15.07;60.36
60852;BME280;48553;50.766;2.900;2023-03-16T15:04:43;100171.41;;;14.99;59.64
60852;BME280;48553;50.766;2.900;2023-03-16T15:07:44;100159.91;;;14.93;59.90
60852;BME280;48553;50.766;2.900;2023-03-16T15:10:45;100169.38;;;14.92;61.21
60852;BME280;48553;50.766;2.900;2023-03-16T15:13:49;100158.28;;;14.89;61.80
60852;BME280;48553;50.766;2.900;2023-03-16T15:16:50;100154.69;;;14.81;60.66
60852;BME280;48553;50.766;2.900;2023-03-16T15:19:50;100157.38;;;14.77;61.46
60852;BME280;48553;50.766;2.900;2023-03-16T15:22:52;100149.81;;;14.71;61.52
60852;BME280;48553;50.766;2.900;2023-03-16T15:25:52;100142.69;;;14.66;61.46
60852;BME280;48553;50.766;2.900;2023-03-16T15:28:59;100156.00;;;14.57;59.93
60852;BME280;48553;50.766;2.900;2023-03-16T15:31:59;100146.00;;;14.49;61.99
60852;BME280;48553;50.766;2.900;2023-03-16T15:35:00;100151.09;;;14.43;61.37
60852;BME280;48553;50.766;2.900;2023-03-16T15:38:03;100153.00;;;14.39;62.04
60852;BME280;48553;50.766;2.900;2023-03-16T15:41:11;100147.41;;;14.32;61.52
60852;BME280;48553;50.766;2.900;2023-03-16T15:44:12;100149.75;;;14.30;61.46
60852;BME280;48553;50.766;2.900;2023-03-16T15:47:12;100148.91;;;14.26;62.26
60852;BME280;48553;50.766;2.900;2023-03-16T15:50:15;100137.84;;;14.22;62.39
60852;BME280;48553;50.766;2.900;2023-03-16T15:53:48;100138.13;;;14.13;61.85
60852;BME280;48553;50.766;2.900;2023-03-16T15:56:50;100134.91;;;14.08;62.15
60852;BME280;48553;50.766;2.900;2023-03-16T15:59:50;100127.34;;;14.01;62.23
60852;BME280;48553;50.766;2.900;2023-03-16T16:02:51;100124.13;;;13.95;63.42
60852;BME280;48553;50.766;2.900;2023-03-16T16:05:52;100114.59;;;13.89;63.38
60852;BME280;48553;50.766;2.900;2023-03-16T16:08:53;100122.50;;;13.91;63.80
60852;BME280;48553;50.766;2.900;2023-03-16T16:11:54;100115.78;;;13.88;63.60
60852;BME280;48553;50.766;2.900;2023-03-16T16:14:54;100115.34;;;13.86;64.25
60852;BME280;48553;50.766;2.900;2023-03-16T16:17:56;100113.66;;;13.78;65.08
60852;BME280;48553;50.766;2.900;2023-03-16T16:20:58;100124.66;;;13.74;64.13
60852;BME280;48553;50.766;2.900;2023-03-16T16:23:59;100104.16;;;13.72;64.49
60852;BME280;48553;50.766;2.900;2023-03-16T16:27:02;100098.94;;;13.67;64.45
60852;BME280;48553;50.766;2.900;2023-03-16T16:30:15;100091.03;;;13.62;64.64
60852;BME280;48553;50.766;2.900;2023-03-16T16:33:30;100087.47;;;13.61;64.95
60852;BME280;48553;50.766;2.900;2023-03-16T16:36:31;100096.44;;;13.54;64.96
60852;BME280;48553;50.766;2.900;2023-03-16T16:39:31;100081.81;;;13.50;64.83
60852;BME280;48553;50.766;2.900;2023-03-16T16:42:33;100081.78;;;13.47;65.47
60852;BME280;48553;50.766;2.900;2023-03-16T16:45:33;100080.19;;;13.46;65.42
60852;BME280;48553;50.766;2.900;2023-03-16T16:48:38;100072.69;;;13.43;65.81
60852;BME280;48553;50.766;2.900;2023-03-16T16:51:41;100069.09;;;13.39;66.11
60852;BME280;48553;50.766;2.900;2023-03-16T16:54:41;100064.69;;;13.34;66.12
60852;BME280;48553;50.766;2.900;2023-03-16T16:57:42;100066.22;;;13.31;66.14
60852;BME280;48553;50.766;2.900;2023-03-16T17:00:45;100076.34;;;13.27;66.41
60852;BME280;48553;50.766;2.900;2023-03-16T17:03:46;100074.34;;;13.24;66.77
60852;BME280;48553;50.766;2.900;2023-03-16T17:06:47;100066.03;;;13.21;66.08
60852;BME280;48553;50.766;2.900;2023-03-16T17:09:47;100069.53;;;13.18;66.92
60852;BME280;48553;50.766;2.900;2023-03-16T17:12:53;100055.28;;;13.12;66.34
60852;BME280;48553;50.766;2.900;2023-03-16T17:15:54;100068.19;;;13.08;66.50
60852;BME280;48553;50.766;2.900;2023-03-16T17:18:54;100069.28;;;13.03;66.07
60852;BME280;48553;50.766;2.900;2023-03-16T17:21:56;100064.13;;;12.98;66.89
60852;BME280;48553;50.766;2.900;2023-03-16T17:24:57;100073.53;;;12.97;66.50
60852;BME280;48553;50.766;2.900;2023-03-16T17:27:58;100074.66;;;12.92;66.41